Time;durP1;ratioP1;P1;durP2;ratioP2;P2;SDS_P1;SDS_P2;PMS_P1;PMS_P2;Temp;Humidity;BMP_temperature;BMP_pressure;BME280_temperature;BME280_humidity;BME280_pressure;Samples;Min_cycle;Max_cycle;Signal;HPM_P1;HPM_P2
2023/03/25 00:00:06;;;;;;;;;;;17.70;66.30;;;;;;10011959;29;92956;-67
2023/03/25 00:05:09;;;;;;;;;;;17.70;66.40;;;;;;10012889;29;92503;-68
2023/03/25 00:10:11;;;;;;;;;;;17.70;66.50;;;;;;10011738;29;93508;-68
2023/03/25 00:15:15;;;;;;;;;;;17.70;66.40;;;;;;10012114;29;94660;-68
2023/03/25 00:20:17;;;;;;;;;;;17.70;66.40;;;;;;9992953;29;96869;-68
2023/03/25 00:25:19;;;;;;;;;;;17.70;66.40;;;;;;10011841;29;93509;-68
2023/03/25 00:30:21;;;;;;;;;;;17.70;66.40;;;;;;10009987;29;93355;-68
2023/03/25 00:35:24;;;;;;;;;;;17.70;66.40;;;;;;10009629;29;94252;-68
2023/03/25 00:40:27;;;;;;;;;;;17.70;66.30;;;;;;10011680;29;93598;-67
2023/03/25 00:45:29;;;;;;;;;;;17.70;66.20;;;;;;10011750;29;95059;-68
2023/03/25 00:50:31;;;;;;;;;;;17.70;66.20;;;;;;10009780;29;93322;-68
2023/03/25 00:55:33;;;;;;;;;;;17.70;66.20;;;;;;10010763;29;92797;-68
2023/03/25 01:00:35;;;;;;;;;;;17.60;66.00;;;;;;10009701;29;93652;-68
2023/03/25 01:05:40;;;;;;;;;;;17.70;66.00;;;;;;10009187;29;94458;-68
2023/03/25 01:10:42;;;;;;;;;;;17.60;66.00;;;;;;10008669;29;96838;-68
2023/03/25 01:15:44;;;;;;;;;;;17.60;65.90;;;;;;10010297;29;93494;-68
2023/03/25 01:20:46;;;;;;;;;;;17.60;65.80;;;;;;10008831;29;93420;-68
2023/03/25 01:25:48;;;;;;;;;;;17.60;65.90;;;;;;10010615;29;93477;-67
2023/03/25 01:30:50;;;;;;;;;;;17.60;65.80;;;;;;10010747;29;92594;-68
2023/03/25 01:35:52;;;;;;;;;;;17.60;65.90;;;;;;10010516;29;93676;-68
2023/03/25 01:40:54;;;;;;;;;;;17.60;65.90;;;;;;10010443;29;94405;-68
2023/03/25 01:45:56;;;;;;;;;;;17.60;65.90;;;;;;10010913;29;92786;-68
2023/03/25 01:51:00;;;;;;;;;;;17.50;65.80;;;;;;10008374;29;93197;-68
2023/03/25 01:56:04;;;;;;;;;;;17.50;65.90;;;;;;10009316;29;94574;-68
2023/03/25 02:01:06;;;;;;;;;;;17.50;65.80;;;;;;10007755;29;96272;-68
2023/03/25 02:06:10;;;;;;;;;;;17.50;65.60;;;;;;10013220;29;93536;-68
2023/03/25 02:11:12;;;;;;;;;;;17.50;65.70;;;;;;10015663;29;93584;-69
2023/03/25 02:16:31;;;;;;;;;;;17.50;65.80;;;;;;10013361;29;94421;-68
2023/03/25 02:21:49;;;;;;;;;;;17.50;65.80;;;;;;10014730;29;94938;-68
2023/03/25 02:27:00;;;;;;;;;;;17.50;65.70;;;;;;10015318;29;94439;-68
2023/03/25 02:32:04;;;;;;;;;;;17.50;65.70;;;;;;10014872;29;93393;-68
2023/03/25 02:37:06;;;;;;;;;;;17.50;65.70;;;;;;10015869;29;93820;-68
2023/03/25 02:42:14;;;;;;;;;;;17.40;65.50;;;;;;10015712;29;94784;-69
2023/03/25 02:47:18;;;;;;;;;;;17.50;65.50;;;;;;10016123;29;95240;-69
2023/03/25 02:52:28;;;;;;;;;;;17.40;65.40;;;;;;10012045;29;95887;-68
2023/03/25 02:57:31;;;;;;;;;;;17.40;65.50;;;;;;10013623;29;94094;-68
2023/03/25 03:02:33;;;;;;;;;;;17.40;65.50;;;;;;10012870;29;93698;-68
2023/03/25 03:07:38;;;;;;;;;;;17.40;65.50;;;;;;10013495;29;93219;-68
2023/03/25 03:12:58;;;;;;;;;;;17.40;65.50;;;;;;10014140;29;93556;-68
2023/03/25 03:18:14;;;;;;;;;;;17.40;65.50;;;;;;10013169;29;94432;-68
2023/03/25 03:23:32;;;;;;;;;;;17.40;65.50;;;;;;10012050;29;93226;-68
2023/03/25 03:28:44;;;;;;;;;;;17.40;65.30;;;;;;10013984;29;93811;-68
2023/03/25 03:33:49;;;;;;;;;;;17.40;65.30;;;;;;9996557;29;93843;-68
2023/03/25 03:39:00;;;;;;;;;;;17.40;65.30;;;;;;10013012;29;92511;-68
2023/03/25 03:44:10;;;;;;;;;;;17.40;65.30;;;;;;10010654;29;95779;-68
2023/03/25 03:49:15;;;;;;;;;;;17.40;65.20;;;;;;10011821;29;94466;-68
2023/03/25 03:54:25;;;;;;;;;;;17.40;65.20;;;;;;9995964;29;93334;-68
2023/03/25 03:59:34;;;;;;;;;;;17.40;65.20;;;;;;10012539;29;94063;-68
2023/03/25 04:04:37;;;;;;;;;;;17.30;65.00;;;;;;10012334;29;94231;-67
2023/03/25 04:10:01;;;;;;;;;;;17.30;65.10;;;;;;9995250;29;94642;-68
2023/03/25 04:15:04;;;;;;;;;;;17.30;65.00;;;;;;10012085;29;93524;-68
2023/03/25 04:20:10;;;;;;;;;;;17.30;64.90;;;;;;10012998;29;93063;-68
2023/03/25 04:25:12;;;;;;;;;;;17.30;65.00;;;;;;10010882;29;94437;-68
2023/03/25 04:30:18;;;;;;;;;;;17.30;65.10;;;;;;10010673;29;93421;-68
2023/03/25 04:35:19;;;;;;;;;;;17.30;65.00;;;;;;10008352;29;96583;-68
2023/03/25 04:40:24;;;;;;;;;;;17.30;65.00;;;;;;10011469;29;93483;-68
2023/03/25 04:45:27;;;;;;;;;;;17.30;65.00;;;;;;10010864;29;94201;-68
2023/03/25 06:02:51;;;;;;;;;;;17.20;65.20;;;;;;10072702;28;93473;-67
2023/03/25 06:07:55;;;;;;;;;;;17.20;65.10;;;;;;10131202;28;96984;-67
2023/03/25 06:12:57;;;;;;;;;;;17.30;65.30;;;;;;10116142;28;93623;-67
2023/03/25 06:17:58;;;;;;;;;;;17.30;65.50;;;;;;10136894;28;93981;-66
2023/03/25 06:23:01;;;;;;;;;;;17.30;65.60;;;;;;10116006;28;93462;-66
2023/03/25 06:28:02;;;;;;;;;;;17.30;65.60;;;;;;10130780;28;93722;-67
2023/03/25 06:33:04;;;;;;;;;;;17.40;65.70;;;;;;10131371;28;95887;-67
2023/03/25 06:38:08;;;;;;;;;;;17.40;65.70;;;;;;10133385;28;93399;-67
2023/03/25 06:43:10;;;;;;;;;;;17.40;65.80;;;;;;10132116;28;94425;-67
2023/03/25 06:48:12;;;;;;;;;;;17.40;65.70;;;;;;10128886;28;93411;-67
2023/03/25 06:53:14;;;;;;;;;;;17.40;65.80;;;;;;10132815;28;94598;-66
2023/03/25 06:58:16;;;;;;;;;;;17.40;65.70;;;;;;10132680;28;93508;-67
2023/03/25 07:03:18;;;;;;;;;;;17.40;65.70;;;;;;10131159;28;93902;-67
2023/03/25 07:08:20;;;;;;;;;;;17.40;65.60;;;;;;10132983;28;92681;-67
2023/03/25 07:13:21;;;;;;;;;;;17.40;65.60;;;;;;10133168;28;94710;-67
2023/03/25 07:18:23;;;;;;;;;;;17.40;65.60;;;;;;10132035;28;93394;-67
2023/03/25 07:23:25;;;;;;;;;;;17.40;65.70;;;;;;10127902;28;95255;-66
2023/03/25 07:28:27;;;;;;;;;;;17.40;65.60;;;;;;10114535;28;94405;-67
2023/03/25 07:33:29;;;;;;;;;;;17.30;65.60;;;;;;10113587;28;94398;-67
2023/03/25 07:38:31;;;;;;;;;;;17.40;65.70;;;;;;10130210;28;93610;-67
2023/03/25 07:43:33;;;;;;;;;;;17.30;65.70;;;;;;10129865;28;92982;-67
2023/03/25 07:48:35;;;;;;;;;;;17.30;65.70;;;;;;10130309;28;93782;-67
2023/03/25 07:53:39;;;;;;;;;;;17.30;65.60;;;;;;10130321;28;94257;-67
2023/03/25 07:58:43;;;;;;;;;;;17.40;65.80;;;;;;10130411;28;92560;-67
2023/03/25 08:03:45;;;;;;;;;;;17.40;65.80;;;;;;10128575;28;93482;-68
2023/03/25 08:08:47;;;;;;;;;;;17.40;65.80;;;;;;10130139;28;93272;-69
2023/03/25 08:13:48;;;;;;;;;;;17.40;65.70;;;;;;10109274;28;96475;-67
2023/03/25 08:18:51;;;;;;;;;;;17.50;65.70;;;;;;10112964;28;94076;-67
2023/03/25 08:23:57;;;;;;;;;;;17.50;65.60;;;;;;10128808;28;94560;-69
2023/03/25 08:29:01;;;;;;;;;;;17.50;65.60;;;;;;10130123;28;93552;-66
2023/03/25 08:34:04;;;;;;;;;;;17.50;65.60;;;;;;10129122;28;94417;-67
2023/03/25 08:39:10;;;;;;;;;;;17.50;65.60;;;;;;10128192;28;94401;-67
2023/03/25 08:44:12;;;;;;;;;;;17.60;65.60;;;;;;10128302;28;94499;-67
2023/03/25 08:49:14;;;;;;;;;;;17.60;65.50;;;;;;10095198;28;92743;-66
2023/03/25 08:54:16;;;;;;;;;;;17.60;66.00;;;;;;10128711;28;96873;-66
2023/03/25 08:59:18;;;;;;;;;;;17.70;66.10;;;;;;10111135;28;94251;-68
2023/03/25 09:04:20;;;;;;;;;;;17.70;66.70;;;;;;10108510;28;97888;-70
2023/03/25 09:09:22;;;;;;;;;;;17.70;66.80;;;;;;10127854;28;93770;-68
2023/03/25 09:14:24;;;;;;;;;;;17.80;67.30;;;;;;10127326;28;94436;-67
2023/03/25 09:19:25;;;;;;;;;;;17.80;67.00;;;;;;10126895;28;93821;-68
2023/03/25 09:24:27;;;;;;;;;;;17.80;67.00;;;;;;10127850;28;93819;-68
2023/03/25 09:29:29;;;;;;;;;;;17.80;67.20;;;;;;10126531;28;93240;-68
2023/03/25 09:34:31;;;;;;;;;;;17.80;67.20;;;;;;10109567;28;93516;-67
2023/03/25 09:39:32;;;;;;;;;;;17.80;67.20;;;;;;10126269;28;93130;-69
2023/03/25 09:44:38;;;;;;;;;;;17.80;67.10;;;;;;10128097;28;94766;-69
2023/03/25 09:49:41;;;;;;;;;;;17.80;67.60;;;;;;10126022;28;94460;-70
2023/03/25 09:54:47;;;;;;;;;;;17.80;67.60;;;;;;10123975;28;95939;-71
2023/03/25 09:59:50;;;;;;;;;;;17.90;67.50;;;;;;10126558;28;93852;-71
2023/03/25 10:05:01;;;;;;;;;;;17.80;68.30;;;;;;10125592;28;93491;-69
2023/03/25 10:10:05;;;;;;;;;;;17.80;67.00;;;;;;10125510;28;93744;-71
2023/03/25 10:15:07;;;;;;;;;;;17.80;67.00;;;;;;10125969;28;93630;-70
2023/03/25 10:20:17;;;;;;;;;;;17.80;66.80;;;;;;10108414;28;93538;-70
2023/03/25 10:25:21;;;;;;;;;;;17.80;66.50;;;;;;10127091;28;94637;-69
2023/03/25 10:30:25;;;;;;;;;;;17.80;66.80;;;;;;10132904;28;93503;-69
2023/03/25 10:35:29;;;;;;;;;;;17.80;66.70;;;;;;10132439;28;94827;-71
2023/03/25 10:40:38;;;;;;;;;;;17.90;66.50;;;;;;10131943;28;93446;-69
2023/03/25 10:45:41;;;;;;;;;;;17.90;66.10;;;;;;10129965;28;96189;-71
2023/03/25 10:50:42;;;;;;;;;;;17.80;65.80;;;;;;10130375;28;93457;-71
2023/03/25 10:55:51;;;;;;;;;;;17.80;65.60;;;;;;10130152;28;114641;-69
2023/03/25 11:00:53;;;;;;;;;;;17.80;65.20;;;;;;10131141;28;93409;-68
2023/03/25 11:05:55;;;;;;;;;;;17.80;65.00;;;;;;10114531;28;95624;-69
2023/03/25 11:10:59;;;;;;;;;;;17.90;67.00;;;;;;10132020;28;93678;-68
2023/03/25 11:16:02;;;;;;;;;;;17.90;67.00;;;;;;10132532;28;93947;-70
2023/03/25 11:21:12;;;;;;;;;;;18.00;66.80;;;;;;10115027;28;92194;-67
2023/03/25 11:26:24;;;;;;;;;;;18.00;66.40;;;;;;10130098;28;94261;-67
2023/03/25 11:31:28;;;;;;;;;;;18.00;66.90;;;;;;10112892;28;93347;-66
2023/03/25 11:36:31;;;;;;;;;;;18.00;66.30;;;;;;10128148;28;96383;-67
2023/03/25 11:41:35;;;;;;;;;;;18.00;66.10;;;;;;10129484;28;93258;-68
2023/03/25 11:46:41;;;;;;;;;;;18.00;66.00;;;;;;10127205;28;93493;-67
2023/03/25 11:51:43;;;;;;;;;;;18.00;65.50;;;;;;10127804;28;93555;-69
2023/03/25 11:56:47;;;;;;;;;;;18.10;66.00;;;;;;10128616;28;93555;-69
2023/03/25 12:01:50;;;;;;;;;;;18.10;68.50;;;;;;10128745;28;94445;-68
2023/03/25 12:06:58;;;;;;;;;;;18.10;67.40;;;;;;10129143;28;94495;-67
2023/03/25 12:12:07;;;;;;;;;;;18.20;67.00;;;;;;10130151;28;95704;-67
2023/03/25 12:17:17;;;;;;;;;;;18.20;66.90;;;;;;10128497;28;93023;-67
2023/03/25 12:22:27;;;;;;;;;;;18.10;66.90;;;;;;10111170;28;94614;-70
2023/03/25 12:27:55;;;;;;;;;;;18.10;66.50;;;;;;10125898;28;96885;-68
2023/03/25 12:33:04;;;;;;;;;;;18.10;66.50;;;;;;10124164;28;93449;-69
2023/03/25 12:38:25;;;;;;;;;;;18.10;66.70;;;;;;10128086;28;94180;-69
2023/03/25 12:43:45;;;;;;;;;;;18.10;66.60;;;;;;10126764;28;94788;-69
2023/03/25 12:48:54;;;;;;;;;;;18.10;66.50;;;;;;10125473;28;93928;-69
2023/03/25 12:54:10;;;;;;;;;;;18.10;66.40;;;;;;10126885;28;93425;-69
2023/03/25 12:59:12;;;;;;;;;;;18.10;66.50;;;;;;10110152;28;94905;-69
2023/03/25 13:04:19;;;;;;;;;;;18.20;66.60;;;;;;10128162;28;92369;-69
2023/03/25 13:09:45;;;;;;;;;;;18.20;66.60;;;;;;10110393;28;93493;-69
2023/03/25 13:14:55;;;;;;;;;;;18.20;66.60;;;;;;10116327;28;93628;-68
2023/03/25 13:19:59;;;;;;;;;;;18.20;66.50;;;;;;10124573;28;96025;-68
2023/03/25 13:25:03;;;;;;;;;;;18.20;66.50;;;;;;10110906;28;94424;-68
2023/03/25 13:30:08;;;;;;;;;;;18.20;66.60;;;;;;10110658;28;94951;-69
2023/03/25 13:35:15;;;;;;;;;;;18.20;66.80;;;;;;10109504;28;94486;-69
2023/03/25 13:40:27;;;;;;;;;;;18.30;67.00;;;;;;10127124;28;93463;-68
2023/03/25 13:45:31;;;;;;;;;;;18.30;67.00;;;;;;10128118;28;94401;-70
2023/03/25 13:50:34;;;;;;;;;;;18.30;67.00;;;;;;10127181;28;94780;-70
2023/03/25 13:55:39;;;;;;;;;;;18.30;67.00;;;;;;10127305;28;92249;-70
2023/03/25 14:00:51;;;;;;;;;;;18.30;66.80;;;;;;10129159;28;94433;-70
2023/03/25 14:05:57;;;;;;;;;;;18.30;66.90;;;;;;10133560;28;93494;-68
2023/03/25 14:11:18;;;;;;;;;;;18.30;66.70;;;;;;10130642;28;96788;-69
2023/03/25 14:16:23;;;;;;;;;;;18.30;66.70;;;;;;10133187;28;93318;-69
2023/03/25 14:21:25;;;;;;;;;;;18.20;66.60;;;;;;10115700;28;94452;-68
2023/03/25 14:26:27;;;;;;;;;;;18.20;66.70;;;;;;10133009;28;93703;-67
2023/03/25 14:31:32;;;;;;;;;;;18.20;66.70;;;;;;10132508;28;94493;-68
2023/03/25 14:36:41;;;;;;;;;;;18.20;66.70;;;;;;10115247;28;94401;-70
2023/03/25 14:41:56;;;;;;;;;;;18.20;66.90;;;;;;10132840;28;94628;-68
2023/03/25 14:47:21;;;;;;;;;;;18.10;66.90;;;;;;10131862;28;92936;-69
2023/03/25 14:52:31;;;;;;;;;;;18.10;67.00;;;;;;10132507;28;93275;-69
2023/03/25 14:57:38;;;;;;;;;;;18.10;67.00;;;;;;10132405;28;93595;-68
2023/03/25 15:02:41;;;;;;;;;;;18.10;67.30;;;;;;10128457;28;95641;-68
2023/03/25 15:07:45;;;;;;;;;;;18.10;67.30;;;;;;10132449;28;93574;-69
2023/03/25 15:12:50;;;;;;;;;;;18.10;67.30;;;;;;10131883;28;94293;-68
2023/03/25 15:17:52;;;;;;;;;;;18.10;67.50;;;;;;10114317;28;94406;-67
2023/03/25 15:23:13;;;;;;;;;;;18.10;67.30;;;;;;10111124;28;93409;-70
2023/03/25 15:28:33;;;;;;;;;;;18.00;67.20;;;;;;10130453;28;94530;-69
2023/03/25 15:33:44;;;;;;;;;;;18.00;69.20;;;;;;10130031;28;93631;-66
2023/03/25 15:38:46;;;;;;;;;;;18.10;69.30;;;;;;10131492;28;93155;-71
2023/03/25 15:43:57;;;;;;;;;;;18.10;69.70;;;;;;10130276;28;93281;-69
2023/03/25 15:49:10;;;;;;;;;;;18.20;69.60;;;;;;10129814;28;92971;-68
2023/03/25 15:54:14;;;;;;;;;;;18.20;69.10;;;;;;10127077;28;95475;-68
2023/03/25 15:59:16;;;;;;;;;;;18.10;68.80;;;;;;10129112;28;93578;-68
2023/03/25 16:04:24;;;;;;;;;;;18.10;68.60;;;;;;10129141;28;94536;-68
2023/03/25 16:09:26;;;;;;;;;;;18.10;68.50;;;;;;10129222;28;93560;-68
2023/03/25 16:14:30;;;;;;;;;;;18.00;68.20;;;;;;10112989;28;94474;-68
2023/03/25 16:19:43;;;;;;;;;;;18.00;68.20;;;;;;10129574;28;94656;-68
2023/03/25 16:24:46;;;;;;;;;;;18.00;68.10;;;;;;10128621;28;93988;-68
2023/03/25 16:29:49;;;;;;;;;;;18.00;67.80;;;;;;10096036;28;92863;-67
2023/03/25 16:34:52;;;;;;;;;;;18.10;67.70;;;;;;10112050;28;94015;-67
2023/03/25 16:39:56;;;;;;;;;;;18.00;67.40;;;;;;10129237;28;93525;-68
2023/03/25 16:44:57;;;;;;;;;;;18.00;67.30;;;;;;10125862;28;96831;-68
2023/03/25 16:50:00;;;;;;;;;;;18.00;67.20;;;;;;10127258;28;93985;-68
2023/03/25 16:55:03;;;;;;;;;;;18.00;67.10;;;;;;10110382;28;93917;-68
2023/03/25 17:00:16;;;;;;;;;;;18.00;67.40;;;;;;10127554;28;94362;-67
2023/03/25 17:05:27;;;;;;;;;;;17.90;66.90;;;;;;10109829;28;93525;-67
2023/03/25 17:10:30;;;;;;;;;;;17.90;66.80;;;;;;10127113;28;93827;-68
2023/03/25 17:15:33;;;;;;;;;;;17.90;66.70;;;;;;10127320;28;95233;-68
2023/03/25 17:20:40;;;;;;;;;;;17.80;66.60;;;;;;10128198;28;92374;-68
2023/03/25 17:25:55;;;;;;;;;;;17.80;66.60;;;;;;10110116;28;93656;-68
2023/03/25 17:30:56;;;;;;;;;;;17.80;66.50;;;;;;10127066;28;93821;-68
2023/03/25 17:35:59;;;;;;;;;;;17.80;66.50;;;;;;10111331;28;96201;-68
2023/03/25 17:41:02;;;;;;;;;;;17.70;66.40;;;;;;10133457;28;93531;-68
2023/03/25 17:46:05;;;;;;;;;;;17.70;66.40;;;;;;10133137;28;94546;-68
2023/03/25 17:51:09;;;;;;;;;;;17.70;66.40;;;;;;10132666;28;93526;-67
2023/03/25 17:56:12;;;;;;;;;;;17.60;66.30;;;;;;10116068;28;92982;-68
2023/03/25 18:01:14;;;;;;;;;;;17.60;66.30;;;;;;10133495;28;94287;-68
2023/03/25 18:06:15;;;;;;;;;;;17.60;66.40;;;;;;10115261;28;93492;-68
2023/03/25 18:11:18;;;;;;;;;;;17.50;66.30;;;;;;10132642;28;92750;-68
2023/03/25 18:16:20;;;;;;;;;;;17.50;66.30;;;;;;10132681;28;93186;-68
2023/03/25 18:21:22;;;;;;;;;;;17.50;66.30;;;;;;10114956;28;93229;-68
2023/03/25 18:26:24;;;;;;;;;;;17.50;66.30;;;;;;10112483;28;95918;-68
2023/03/25 18:31:26;;;;;;;;;;;17.50;66.30;;;;;;10131449;28;93476;-68
2023/03/25 18:36:28;;;;;;;;;;;17.40;66.30;;;;;;10131894;28;93785;-68
2023/03/25 18:41:30;;;;;;;;;;;17.40;66.30;;;;;;10131549;28;93374;-68
2023/03/25 18:46:32;;;;;;;;;;;17.40;66.30;;;;;;10131216;28;93427;-68
2023/03/25 18:51:36;;;;;;;;;;;17.40;66.30;;;;;;10130767;28;92984;-68
2023/03/25 18:56:40;;;;;;;;;;;17.40;66.20;;;;;;10131474;28;93384;-68
2023/03/25 19:01:42;;;;;;;;;;;17.30;66.20;;;;;;10132016;28;93005;-68
2023/03/25 19:06:44;;;;;;;;;;;17.40;66.30;;;;;;10131827;28;94425;-69
2023/03/25 19:11:46;;;;;;;;;;;17.40;66.30;;;;;;10132237;28;93263;-75
2023/03/25 19:16:48;;;;;;;;;;;17.30;66.70;;;;;;10112485;28;96994;-73
2023/03/25 19:22:04;;;;;;;;;;;17.40;66.20;;;;;;10115924;28;93674;-67
2023/03/25 19:27:06;;;;;;;;;;;17.40;67.00;;;;;;10130879;28;93334;-67
2023/03/25 19:32:08;;;;;;;;;;;17.50;67.00;;;;;;10130800;28;93505;-71
2023/03/25 19:37:10;;;;;;;;;;;17.50;66.50;;;;;;10130002;28;93550;-72
2023/03/25 19:42:12;;;;;;;;;;;17.60;66.40;;;;;;10129026;28;94073;-72
2023/03/25 19:47:13;;;;;;;;;;;17.60;66.30;;;;;;10129307;28;94456;-73
2023/03/25 19:52:15;;;;;;;;;;;17.60;66.30;;;;;;10130015;28;93767;-72
2023/03/25 19:57:17;;;;;;;;;;;17.60;66.40;;;;;;10127657;28;93404;-73
2023/03/25 20:02:19;;;;;;;;;;;17.60;66.30;;;;;;10128776;28;93643;-73
2023/03/25 20:07:24;;;;;;;;;;;17.60;66.40;;;;;;10125898;28;96199;-72
2023/03/25 20:12:28;;;;;;;;;;;17.60;66.30;;;;;;10129049;28;93508;-72
2023/03/25 20:17:30;;;;;;;;;;;17.50;66.40;;;;;;10128451;28;94246;-72
2023/03/25 20:22:32;;;;;;;;;;;17.50;66.30;;;;;;10128916;28;95055;-72
2023/03/25 20:27:34;;;;;;;;;;;17.50;66.40;;;;;;10128832;28;94715;-73
2023/03/25 20:32:36;;;;;;;;;;;17.50;66.40;;;;;;10128119;28;94452;-72
2023/03/25 20:37:43;;;;;;;;;;;17.50;66.50;;;;;;10128861;28;93709;-73
2023/03/25 20:42:46;;;;;;;;;;;17.50;66.60;;;;;;10129124;28;93039;-72
2023/03/25 20:47:48;;;;;;;;;;;17.50;66.50;;;;;;10109914;28;94936;-72
2023/03/25 20:52:52;;;;;;;;;;;17.50;66.60;;;;;;10126380;28;93574;-72
2023/03/25 20:57:54;;;;;;;;;;;17.50;66.60;;;;;;10108380;28;95526;-73
2023/03/25 21:02:56;;;;;;;;;;;17.50;66.50;;;;;;10125617;28;93640;-72
2023/03/25 21:07:58;;;;;;;;;;;17.50;66.50;;;;;;10125967;28;93410;-72
2023/03/25 21:13:00;;;;;;;;;;;17.40;66.50;;;;;;10126795;28;93263;-73
2023/03/25 21:18:02;;;;;;;;;;;17.40;67.60;;;;;;10109626;28;95122;-72
2023/03/25 21:23:05;;;;;;;;;;;17.40;66.50;;;;;;10108954;28;93430;-73
2023/03/25 21:28:07;;;;;;;;;;;17.40;66.30;;;;;;10125022;28;94635;-72
2023/03/25 21:33:09;;;;;;;;;;;17.40;66.30;;;;;;10128992;28;93146;-72
2023/03/25 21:38:11;;;;;;;;;;;17.40;65.90;;;;;;10127962;28;93539;-71
2023/03/25 21:43:13;;;;;;;;;;;17.40;65.80;;;;;;10110121;28;93655;-71
2023/03/25 21:48:16;;;;;;;;;;;17.40;65.60;;;;;;10124571;28;95409;-71
2023/03/25 21:53:18;;;;;;;;;;;17.30;65.70;;;;;;10109708;28;94488;-71
2023/03/25 21:58:21;;;;;;;;;;;17.30;66.10;;;;;;10125900;28;93623;-72
2023/03/25 22:03:28;;;;;;;;;;;17.30;66.20;;;;;;10110680;28;93893;-71
2023/03/25 22:08:30;;;;;;;;;;;17.20;66.00;;;;;;10126134;28;93686;-72
2023/03/25 22:13:32;;;;;;;;;;;17.20;66.00;;;;;;10126491;28;94636;-70
2023/03/25 22:18:34;;;;;;;;;;;17.20;66.10;;;;;;10125517;28;93775;-72
2023/03/25 22:23:36;;;;;;;;;;;17.20;66.00;;;;;;10131616;28;92774;-72
2023/03/25 22:28:38;;;;;;;;;;;17.20;66.00;;;;;;10132446;28;94618;-71
2023/03/25 22:33:40;;;;;;;;;;;17.20;66.00;;;;;;10132535;28;93288;-71
2023/03/25 22:38:43;;;;;;;;;;;17.20;66.00;;;;;;10129337;28;97171;-72
2023/03/25 22:43:47;;;;;;;;;;;17.20;65.90;;;;;;10100040;28;94550;-72
2023/03/25 22:48:49;;;;;;;;;;;17.20;65.90;;;;;;10131927;28;93693;-72
2023/03/25 22:53:51;;;;;;;;;;;17.20;65.80;;;;;;10132750;28;93765;-72
2023/03/25 22:58:53;;;;;;;;;;;17.10;65.80;;;;;;10131823;28;93544;-73
2023/03/25 23:03:56;;;;;;;;;;;17.10;65.70;;;;;;10131304;28;93743;-72
2023/03/25 23:08:58;;;;;;;;;;;17.10;65.70;;;;;;10132159;28;94642;-72
2023/03/25 23:14:01;;;;;;;;;;;17.10;65.70;;;;;;10131501;28;92425;-72
2023/03/25 23:19:05;;;;;;;;;;;17.10;65.60;;;;;;10131722;28;94463;-72
2023/03/25 23:24:06;;;;;;;;;;;17.10;65.60;;;;;;10130887;28;94482;-72
2023/03/25 23:29:09;;;;;;;;;;;17.10;65.60;;;;;;10128952;28;95857;-72
2023/03/25 23:34:13;;;;;;;;;;;17.10;65.60;;;;;;10130609;28;94685;-72
2023/03/25 23:39:17;;;;;;;;;;;17.10;65.60;;;;;;10130599;28;93947;-72
2023/03/25 23:44:18;;;;;;;;;;;17.10;65.50;;;;;;10130164;28;93516;-72
2023/03/25 23:49:20;;;;;;;;;;;17.10;65.50;;;;;;10130021;28;93664;-71
2023/03/25 23:54:22;;;;;;;;;;;17.00;65.40;;;;;;10129897;28;93664;-72
2023/03/25 23:59:24;;;;;;;;;;;17.00;65.40;;;;;;10113494;28;94608;-71
